Aviation Digital Data Service (ADDS)

Output produced by METARs form (0949 UTC 07 December 2022)
found at http://www.aviationweather.gov/metar/data/
 
KNMM 070856Z AUTO 21006KT 10SM OVC011 21/19 A3019 RMK AO2 SLP232 T02110189 53010
KNMM 070756Z AUTO 20005KT 10SM BKN012 21/19 A3018 RMK AO2 SLP226 T02110189
KNMM 070711Z AUTO 19004KT 10SM BKN012 BKN042 21/19 A3017 RMK AO2 T02110189
KNMM 070656Z AUTO 21006KT 10SM SCT012 OVC042 21/19 A3017 RMK AO2 SLP223 T02110189
KNMM 070556Z AUTO 19003KT 10SM FEW013 SCT110 21/19 A3016 RMK AO2 SLP222 T02060189 10222 20206 402610194 51014
KNMM 070456Z 19003KT 10SM BKN060 OVC140 21/18 A3016 RMK AO2 SLP221 T02060183
KNMM 070356Z 19003KT 10SM BKN150 OVC230 21/18 A3015 RMK AO2 SLP217 T02110178
KNMM 070256Z VRB03KT 10SM FEW055 BKN230 21/18 A3012 RMK AO2 SLP208 T02110178 51015
KNMM 070156Z 18005KT 10SM FEW060 BKN220 22/18 A3012 RMK AO2 SLP206 T02170178
KNMM 070056Z 15004KT 10SM FEW060 BKN220 22/18 A3010 RMK AO2 SLP200 T02170178
KNMM 062356Z 16003KT 10SM FEW060 BKN220 22/18 A3008 RMK AO2 SLP194 T02220178 10261 20222 51010
KNMM 062256Z 17004KT 10SM FEW030 SCT065 BKN250 23/17 A3008 RMK AO2 SLP192 T02330172
KNMM 062156Z 19006KT 10SM SCT050 SCT060 24/18 A3007 RMK AO2 SLP190 T02440178
KNMM 062056Z 21007G14KT 10SM FEW037 FEW055 BKN250 26/17 A3005 RMK AO2 SLP183 T02560167 55010
KNMM 061956Z 19009G15KT 10SM SCT036 SCT046 BKN060 26/18 A3005 RMK AO2 SLP182 T02560183
KNMM 061856Z VRB05KT 10SM FEW036 FEW060 BKN250 26/18 A3006 RMK AO2 SLP187 T02560178
KNMM 061756Z VRB06KT 10SM SCT022 BKN035 BKN050 24/19 A3008 RMK AO2 SLP194 60001 T02390189 10239 20194 58008
KNMM 061720Z VRB06G14KT 10SM BKN020 OVC028 24/19 A3009 RMK AO2 T02390189
KNMM 061656Z 20006KT 10SM BKN016 BKN022 23/19 A3010 RMK AO2 SLP201 T02280189
KNMM 061556Z VRB04KT 10SM BKN016 OVC036 22/19 A3012 RMK AO2 SLP206 T02170194
KNMM 061456Z VRB05KT 10SM BKN013 22/19 A3010 RMK AO2 SLP202 T02170189 52017
KNMM 061405Z 19003KT 10SM BKN011 BKN017 BKN065 21/19 A3009 RMK AO2 T02060189
KNMM 061356Z 16004KT 10SM SCT016 OVC065 21/19 A3009 RMK AO2 SLP196 T02060189
KNMM 061256Z VRB03KT 10SM SCT015 BKN065 20/18 A3007 RMK AO2 SLP191 T02000183
KNMM 061219Z 18004KT 10SM BKN015 BKN037 BKN060 19/18 A3006 RMK AO2 T01940183
KNMM 061156Z 17003KT 10SM BKN014 OVC035 19/18 A3005 RMK AO2 SLP185 T01940183 10206 20194 53009
KNMM 061117Z VRB03KT 10SM BKN012 BKN037 OVC060 19/18 A3005 RMK AO2 T01940183
KNMM 061056Z 18004KT 10SM FEW011 SCT037 OVC060 19/18 A3005 RMK AO2 CIG 013 SOUTH SLP183 T01940178
KNMM 061005Z AUTO 19004KT 10SM SCT014 20/18 A3003 RMK AO2 T02000178
KNMM 060956Z AUTO 18004KT 10SM BKN014 20/18 A3003 RMK AO2 SLP175 T02000178
KNMM 060943Z AUTO 20005KT 10SM BKN014 OVC021 20/18 A3003 RMK AO2 T02000178
KNMM 060856Z AUTO 18004KT 10SM OVC017 20/18 A3003 RMK AO2 SLP175 T02000178 53008
KNMM 060756Z AUTO 19007KT 10SM OVC016 21/18 A3001 RMK AO2 SLP171 T02060183
KNMM 060736Z AUTO 20005KT 10SM BKN014 OVC019 21/18 A3001 RMK AO2 T02060183
KNMM 060726Z AUTO VRB06KT 10SM OVC016 20/18 A3001 RMK AO2 T02000183
KNMM 060656Z AUTO VRB06KT 10SM SCT013 OVC020 21/18 A3001 RMK AO2 SLP168 T02060183
KNMM 060649Z AUTO VRB05KT 10SM BKN014 OVC020 20/18 A3000 RMK AO2 T02000183
KNMM 060616Z AUTO 20004KT 10SM OVC015 20/18 A3000 RMK AO2 T02000183
KNMM 060603Z AUTO 19005KT 10SM BKN013 OVC017 20/18 A3000 RMK AO2 T02000183
KNMM 060556Z AUTO 20006KT 10SM SCT011 OVC080 20/18 A3000 RMK AO2 SLP168 T02000183 10200 20194 402220111 53006
KNMM 060456Z 19004KT 10SM SCT011 OVC075 20/18 A3000 RMK AO2 SLP166 T02000178
KNMM 060356Z VRB03KT 10SM FEW070 BKN080 20/18 A2999 RMK AO2 SLP164 T02000178
KNMM 060256Z 18006KT 10SM SCT065 BKN080 19/18 A2998 RMK AO2 SLP162 T01940178 50004
KNMM 060156Z 17004KT 10SM BKN080 19/17 A2999 RMK AO2 SLP164 T01940172
KNMM 060056Z 18005KT 10SM OVC075 19/17 A2999 RMK AO2 SLP165 T01940167
KNMM 052356Z 17004KT 10SM OVC075 19/17 A2997 RMK AO2 SLP159 T01940167 10222 20194 53005
KNMM 052256Z 17004KT 10SM OVC075 21/17 A2997 RMK AO2 SLP158 T02060167
KNMM 052156Z 18004KT 10SM FEW060 OVC075 21/17 A2996 RMK AO2 SLP155 T02110167 $
KNMM 052056Z AUTO 20004KT 10SM BKN060 OVC075 22/17 A2996 RMK AO2 SLP154 T02170167 56014
KNMM 051956Z 19005KT 10SM FEW055 OVC075 22/16 A2996 RMK AO2 SLP155 T02170161
KNMM 051856Z 22007KT 10SM OVC060 21/16 A2998 RMK AO2 SLP161 T02110161
KNMM 051756Z VRB03KT 10SM FEW014 OVC075 20/16 A3000 RMK AO2 SLP169 T02000161 10200 20117 58014
KNMM 051748Z VRB05KT 10SM SCT014 OVC075 20/16 A3000 RMK AO2 T02000161
KNMM 051656Z 24009G14KT 10SM OVC012 19/16 A3004 RMK AO2 SLP182 T01890156
KNMM 051603Z VRB06KT 10SM OVC012 19/16 A3004 RMK AO2 T01890156
KNMM 051556Z 22008KT 10SM BKN009 OVC012 19/16 A3005 RMK AO2 SLP185 T01890156
KNMM 051456Z 16004KT 10SM OVC005 15/13 A3004 RMK AO2 SLP183 T01500128 58004
KNMM 051451Z 16004KT 10SM OVC005 14/13 A3004 RMK AO2
KNMM 051444Z 16005KT 10SM SCT017 OVC070 14/13 A3005 RMK AO2 T01440128
KNMM 051431Z 15004KT 9SM SCT005 BKN017 OVC070 14/12 A3005 RMK AO2 T01390122
KNMM 051424Z 15003KT 8SM BKN005 OVC017 13/12 A3005 RMK AO2 T01330122
KNMM 051356Z 13003KT 7SM OVC004 13/12 A3006 RMK AO2 SLP187 T01280117
KNMM 051256Z 11004KT 10SM OVC004 12/11 A3006 RMK AO2 SLP187 T01170106
KNMM 051156Z 00000KT 10SM OVC005 12/10 A3004 RMK AO2 SLP184 T01170100 10117 20111 56006
KNMM 051056Z AUTO 00000KT 10SM OVC009 12/09 A3005 RMK AO2 SLP185 T01170094
KNMM 051052Z AUTO 00000KT 10SM OVC009 12/09 A3005 RMK AO2
KNMM 050956Z AUTO 08003KT 10SM OVC012 12/09 A3006 RMK AO2 SLP190 T01170089
KNMM 050924Z AUTO 11003KT 10SM OVC014 11/09 A3007 RMK AO2 T01110089
KNMM 050856Z AUTO 11003KT 10SM OVC019 12/08 A3008 RMK AO2 SLP195 T01170083 56011
KNMM 050835Z AUTO 00000KT 10SM OVC020 12/08 A3009 RMK AO2 T01170083
KNMM 050809Z AUTO 07003KT 10SM OVC019 11/08 A3009 RMK AO2 T01110083
KNMM 050756Z AUTO 00000KT 10SM OVC020 12/08 A3009 RMK AO2 SLP199 T01170083
KNMM 050727Z AUTO 08003KT 10SM OVC020 11/08 A3009 RMK AO2 T01110083
KNMM 050656Z AUTO 04004KT 10SM OVC019 12/08 A3010 RMK AO2 SLP202 T01170083
KNMM 050620Z AUTO 16003KT 10SM BKN023 BKN060 OVC085 11/09 A3010 RMK AO2 T01110089
KNMM 050556Z AUTO 07003KT 10SM SCT025 BKN060 OVC085 11/08 A3011 RMK AO2 SLP207 T01110083 10133 20111 401610078 58018
KNMM 050456Z AUTO 00000KT 10SM OVC065 12/08 A3013 RMK AO2 SLP214 T01170083
KNMM 050356Z AUTO 00000KT 10SM OVC032 12/08 A3015 RMK AO2 SLP222 T01220078
KNMM 050256Z AUTO 00000KT 10SM OVC032 12/09 A3017 RMK AO2 SLP226 T01220089 58001
KNMM 050156Z 04004KT 10SM OVC037 12/09 A3018 RMK AO2 SLP230 T01220089
KNMM 050056Z 36004KT 10SM SCT040 OVC060 13/10 A3017 RMK AO2 SLP229 T01280100
KNMM 042356Z 30003KT 10SM FEW035 BKN055 13/10 A3017 RMK AO2 SLP228 T01280100 10161 20122 55006
KNMM 042256Z 00000KT 10SM FEW035 BKN055 14/10 A3016 RMK AO2 SLP223 T01390100
KNMM 042156Z 06003KT 10SM BKN055 14/09 A3017 RMK AO2 SLP227 T01440089
KNMM 042056Z 06005KT 10SM OVC055 15/09 A3019 RMK AO2 SLP232 T01500089 56024
KNMM 041956Z 02004KT 10SM OVC040 16/09 A3021 RMK AO2 SLP238 T01560094
KNMM 041856Z 00000KT 10SM OVC048 14/08 A3022 RMK AO2 SLP244 T01390083
KNMM 041833Z 00000KT 10SM SCT026 BKN036 OVC047 13/08 A3024 RMK AO2 T01330083
KNMM 041814Z VRB03KT 10SM OVC028 13/08 A3024 RMK AO2 PRESFR T01280078
KNMM 041756Z 32005KT 10SM OVC031 13/08 A3026 RMK AO2 SLP257 T01280078 10128 20083 58018
KNMM 041656Z AUTO 28007KT 10SM OVC044 12/07 A3029 RMK AO2 SLP267 T01220072
KNMM 041556Z AUTO 00000KT 10SM OVC044 11/07 A3031 RMK AO2 SLP272 T01110067
KNMM 041456Z AUTO 36004KT 10SM OVC044 11/07 A3031 RMK AO2 SLP275 T01060067 51010
KNMM 041356Z AUTO 34004KT 10SM OVC044 09/06 A3031 RMK AO2 SLP273 T00890061
KNMM 041256Z AUTO 35004KT 10SM OVC044 08/06 A3030 RMK AO2 SLP270 T00830061
KNMM 041156Z AUTO 33003KT 10SM BKN045 08/06 A3028 RMK AO2 SLP265 70014 T00780061 10128 20078 53001
KNMM 041056Z AUTO 34003KT 10SM SCT045 08/07 A3028 RMK AO2 SLP262 T00830067
KNMM 040956Z AUTO 34004KT 10SM CLR 09/07 A3028 RMK AO2 SLP263 T00890072
TAF KNMM 0707/0807 20007KT 9999 BKN012 BKN040 QNH3012INS 
     BECMG 0716/0718 26006KT 9999 VCSH SCT030 SCT180 QNH3016INS 
     BECMG 0800/0802 VRB06KT 9999 VCSH BKN020 BKN180 QNH3014INS 
     TEMPO 0802/0807 4800 SHRA AUTOMATED SENSOR METWATCH 0707 TIL 0711 T16/0711Z
T26/0721Z AMD 0723 FN00259